createdAt,value
2022-08-18T00:02:05.378Z,7.72
2022-08-18T00:04:35.976Z,8.00
2022-08-18T00:07:03.975Z,7.78
2022-08-18T00:09:32.845Z,8.00
2022-08-18T00:12:02.213Z,7.50
2022-08-18T00:14:29.253Z,7.35
2022-08-18T00:16:56.082Z,8.00
2022-08-18T00:19:45.635Z,8.18
2022-08-18T00:22:15.336Z,7.90
2022-08-18T00:24:47.486Z,8.25
2022-08-18T00:27:17.405Z,8.13
2022-08-18T00:29:45.007Z,7.75
2022-08-18T00:32:38.567Z,8.05
2022-08-18T00:35:18.479Z,8.10
2022-08-18T00:37:45.318Z,8.68
2022-08-18T00:40:16.858Z,8.25
2022-08-18T00:42:51.006Z,9.10
2022-08-18T00:45:23.295Z,9.48
2022-08-18T00:47:50.016Z,8.93
2022-08-18T00:50:22.337Z,8.20
2022-08-18T00:52:57.721Z,8.48
2022-08-18T00:55:24.844Z,8.68
2022-08-18T00:57:56.034Z,8.43
2022-08-18T01:00:23.103Z,9.40
2022-08-18T01:02:53.458Z,8.65
2022-08-18T01:05:28.322Z,9.02
2022-08-18T01:07:55.163Z,7.78
2022-08-18T01:10:23.371Z,8.40
2022-08-18T01:12:52.974Z,8.60
2022-08-18T01:15:28.814Z,9.23
2022-08-18T01:18:19.790Z,8.32
2022-08-18T01:21:14.403Z,7.57
2022-08-18T01:23:41.098Z,8.45
2022-08-18T01:26:09.542Z,8.05
2022-08-18T01:28:39.761Z,8.48
2022-08-18T01:31:07.823Z,8.32
2022-08-18T01:33:37.231Z,9.05
2022-08-18T01:36:16.872Z,9.68
2022-08-18T01:38:45.974Z,8.32
2022-08-18T01:41:28.587Z,8.85
2022-08-18T01:43:57.441Z,8.70
2022-08-18T01:46:24.587Z,9.13
2022-08-18T01:48:52.404Z,8.63
2022-08-18T01:51:20.681Z,8.25
2022-08-18T01:54:07.891Z,8.55
2022-08-18T01:56:34.599Z,8.80
2022-08-18T01:59:01.292Z,8.65
2022-08-18T02:01:32.991Z,8.60
2022-08-18T02:04:30.990Z,9.00
2022-08-18T02:06:51.161Z,8.02
2022-08-18T02:09:24.121Z,8.25
2022-08-18T02:11:55.785Z,8.90
2022-08-18T02:14:24.999Z,8.65
2022-08-18T02:16:53.724Z,8.95
2022-08-18T02:19:28.313Z,9.15
2022-08-18T02:21:55.020Z,8.95
2022-08-18T02:24:21.800Z,8.88
2022-08-18T02:26:48.597Z,8.63
2022-08-18T02:29:15.401Z,8.60
2022-08-18T02:31:42.066Z,9.10
2022-08-18T02:34:08.822Z,8.82
2022-08-18T02:36:35.520Z,8.70
2022-08-18T02:39:02.309Z,9.50
2022-08-18T02:41:29.671Z,9.27
2022-08-18T02:43:57.426Z,8.98
2022-08-18T02:46:24.155Z,8.98
2022-08-18T02:48:57.213Z,9.15
2022-08-18T02:51:25.846Z,8.95
2022-08-18T02:53:53.869Z,9.65
2022-08-18T02:56:32.856Z,9.35
2022-08-18T02:59:13.896Z,9.40
2022-08-18T03:01:43.814Z,9.18
2022-08-18T03:04:14.389Z,9.25
2022-08-18T03:06:41.757Z,9.27
2022-08-18T03:09:10.352Z,9.40
2022-08-18T03:11:37.795Z,9.43
2022-08-18T03:14:05.699Z,9.57
2022-08-18T03:16:33.454Z,9.88
2022-08-18T03:19:01.320Z,9.30
2022-08-18T03:21:35.073Z,9.18
2022-08-18T03:24:03.012Z,9.73
2022-08-18T03:26:41.860Z,10.05
2022-08-18T03:29:09.428Z,9.75
2022-08-18T03:31:39.312Z,8.93
2022-08-18T03:34:07.272Z,9.50
2022-08-18T03:36:37.066Z,10.07
2022-08-18T03:39:09.233Z,9.48
2022-08-18T03:41:57.564Z,10.00
2022-08-18T03:44:25.519Z,10.45
2022-08-18T03:46:52.362Z,9.90
2022-08-18T03:49:20.907Z,10.18
2022-08-18T03:51:48.863Z,9.57
2022-08-18T03:54:17.854Z,9.50
2022-08-18T03:56:45.772Z,9.25
2022-08-18T03:59:24.018Z,9.50
2022-08-18T04:01:52.627Z,10.38
2022-08-18T04:04:25.937Z,10.52
2022-08-18T04:06:58.700Z,9.75
2022-08-18T04:09:28.053Z,9.85
2022-08-18T04:11:55.537Z,10.45
2022-08-18T04:14:25.089Z,10.70
2022-08-18T04:16:52.675Z,10.48
2022-08-18T04:19:25.157Z,9.50
2022-08-18T04:21:54.622Z,10.00
2022-08-18T04:24:21.403Z,9.63
2022-08-18T04:26:48.583Z,10.27
2022-08-18T04:29:17.311Z,9.10
2022-08-18T04:31:45.468Z,9.73
2022-08-18T04:34:12.566Z,9.65
2022-08-18T04:36:39.787Z,9.68
2022-08-18T04:39:08.102Z,10.07
2022-08-18T04:41:35.759Z,10.02
2022-08-18T04:44:05.363Z,10.25
2022-08-18T04:46:40.585Z,9.82
2022-08-18T04:49:08.179Z,10.10
2022-08-18T04:52:36.296Z,10.48
2022-08-18T04:54:25.068Z,10.25
2022-08-18T04:56:53.390Z,10.57
2022-08-18T04:59:20.605Z,10.18
2022-08-18T05:01:48.029Z,10.48
2022-08-18T05:04:16.780Z,10.63
2022-08-18T05:06:44.224Z,10.52
2022-08-18T05:09:12.827Z,10.32
2022-08-18T05:11:44.680Z,10.90
2022-08-18T05:14:11.792Z,10.48
2022-08-18T05:16:47.872Z,10.02
2022-08-18T05:19:23.259Z,10.80
2022-08-18T05:21:52.343Z,11.07
2022-08-18T05:24:21.594Z,10.85
2022-08-18T05:26:49.269Z,10.60
2022-08-18T05:29:18.799Z,10.38
2022-08-18T05:31:48.115Z,11.15
2022-08-18T05:34:15.591Z,11.30
2022-08-18T05:36:58.128Z,10.48
2022-08-18T05:39:32.796Z,9.95
2022-08-18T05:42:07.514Z,10.57
2022-08-18T05:44:37.388Z,10.35
2022-08-18T05:47:18.936Z,10.52
2022-08-18T05:49:49.198Z,10.32
2022-08-18T05:52:20.014Z,10.50
2022-08-18T05:55:08.456Z,10.80
2022-08-18T05:57:53.195Z,10.90
2022-08-18T06:00:23.435Z,10.38
2022-08-18T06:02:59.182Z,10.20
2022-08-18T06:05:31.947Z,10.50
2022-08-18T06:08:13.970Z,10.90
2022-08-18T06:10:49.660Z,10.25
2022-08-18T06:13:18.714Z,10.50
2022-08-18T06:16:12.386Z,10.10
2022-08-18T06:18:59.851Z,11.02
2022-08-18T06:21:51.055Z,10.15
2022-08-18T06:24:30.036Z,10.18
2022-08-18T06:27:21.635Z,10.38
2022-08-18T06:29:55.031Z,9.93
2022-08-18T06:32:36.457Z,10.10
2022-08-18T06:35:23.440Z,10.25
2022-08-18T06:38:13.077Z,10.48
2022-08-18T06:40:40.068Z,10.38
2022-08-18T06:43:10.201Z,9.57
2022-08-18T06:45:39.943Z,10.82
2022-08-18T06:48:29.458Z,10.45
2022-08-18T06:51:00.510Z,10.35
2022-08-18T06:54:03.831Z,9.75
2022-08-18T06:56:39.711Z,10.50
2022-08-18T06:59:18.697Z,10.35
2022-08-18T07:01:47.657Z,11.10
2022-08-18T07:04:41.369Z,11.25
2022-08-18T07:07:39.542Z,10.45
2022-08-18T07:10:29.606Z,11.07
2022-08-18T07:13:25.677Z,11.25
2022-08-18T07:15:54.663Z,11.30
2022-08-18T07:18:24.791Z,10.68
2022-08-18T07:20:58.087Z,10.43
2022-08-18T07:23:39.493Z,10.95
2022-08-18T07:26:15.840Z,10.82
2022-08-18T07:28:51.586Z,10.70
2022-08-18T07:31:42.323Z,11.05
2022-08-18T07:34:13.819Z,11.43
2022-08-18T07:36:53.391Z,12.20
2022-08-18T07:39:28.522Z,10.55
2022-08-18T07:42:37.154Z,11.10
2022-08-18T07:45:39.077Z,11.10
2022-08-18T07:48:40.202Z,10.00
2022-08-18T07:51:13.520Z,10.57
2022-08-18T07:54:45.422Z,10.57
2022-08-18T07:57:19.708Z,10.30
2022-08-18T07:59:47.379Z,11.43
2022-08-18T08:02:32.929Z,9.63
2022-08-18T08:05:02.693Z,11.13
2022-08-18T08:07:46.357Z,10.40
2022-08-18T08:10:31.316Z,10.98
2022-08-18T08:13:19.347Z,10.95
2022-08-18T08:16:11.334Z,10.52
2022-08-18T08:18:50.240Z,10.88
2022-08-18T08:21:22.531Z,10.82
2022-08-18T08:24:07.700Z,10.95
2022-08-18T08:26:59.021Z,10.02
2022-08-18T08:29:39.907Z,11.35
2022-08-18T08:32:22.587Z,10.18
2022-08-18T08:34:54.427Z,10.63
2022-08-18T08:37:28.436Z,9.77
2022-08-18T08:40:00.402Z,10.27
2022-08-18T08:42:56.453Z,9.88
2022-08-18T08:45:38.329Z,9.18
2022-08-18T08:48:21.513Z,10.93
2022-08-18T08:51:09.715Z,10.48
2022-08-18T08:53:48.384Z,10.27
2022-08-18T08:56:16.749Z,11.07
2022-08-18T08:58:47.688Z,9.93
2022-08-18T09:01:34.975Z,10.30
2022-08-18T09:04:22.276Z,10.98
2022-08-18T09:07:02.977Z,9.98
2022-08-18T09:10:05.679Z,10.20
2022-08-18T09:12:40.444Z,9.60
2022-08-18T09:15:28.592Z,9.88
2022-08-18T09:18:04.537Z,9.90
2022-08-18T09:21:21.803Z,10.18
2022-08-18T09:23:52.179Z,10.23
2022-08-18T09:26:49.863Z,9.85
2022-08-18T09:29:44.029Z,9.23
2022-08-18T09:32:22.935Z,10.00
2022-08-18T09:35:24.510Z,9.30
2022-08-18T09:38:20.577Z,9.13
2022-08-18T09:41:11.873Z,9.32
2022-08-18T09:43:54.782Z,8.95
2022-08-18T09:46:43.715Z,9.20
2022-08-18T09:49:22.794Z,9.23
2022-08-18T09:51:51.848Z,9.13
2022-08-18T09:54:25.113Z,8.52
2022-08-18T09:56:54.309Z,8.95
2022-08-18T09:59:35.124Z,9.20
2022-08-18T10:02:22.712Z,9.68
2022-08-18T10:05:22.758Z,8.20
2022-08-18T10:08:06.219Z,9.15
2022-08-18T10:11:00.531Z,8.50
2022-08-18T10:13:51.085Z,8.35
2022-08-18T10:16:28.800Z,9.10
2022-08-18T10:19:44.669Z,8.57
2022-08-18T10:22:13.362Z,8.50
2022-08-18T10:24:55.234Z,8.60
2022-08-18T10:27:45.647Z,8.73
2022-08-18T10:30:39.941Z,7.95
2022-08-18T10:33:58.469Z,8.98
2022-08-18T10:36:45.198Z,8.50
2022-08-18T10:39:45.699Z,8.73
2022-08-18T10:42:22.884Z,8.32
2022-08-18T10:44:52.693Z,8.65
2022-08-18T10:47:33.609Z,8.07
2022-08-18T10:50:05.281Z,7.82
2022-08-18T10:53:17.085Z,7.72
2022-08-18T10:55:53.042Z,8.07
2022-08-18T10:58:51.738Z,7.72
2022-08-18T11:01:38.686Z,7.65
2022-08-18T11:04:33.905Z,7.28
2022-08-18T11:07:09.464Z,7.80
2022-08-18T11:09:41.761Z,7.82
2022-08-18T11:12:12.000Z,7.25
2022-08-18T11:15:22.642Z,7.78
2022-08-18T11:17:54.083Z,7.53
2022-08-18T11:20:21.966Z,7.15
2022-08-18T11:23:00.406Z,7.28
2022-08-18T11:25:33.882Z,6.90
2022-08-18T11:28:01.654Z,6.90
2022-08-18T11:30:37.104Z,7.43
2022-08-18T11:33:04.916Z,6.88
2022-08-18T11:35:44.733Z,7.15
2022-08-18T11:41:23.362Z,6.75
2022-08-18T11:43:56.759Z,6.50
2022-08-18T11:46:31.520Z,5.70
2022-08-18T11:49:01.397Z,6.60
2022-08-18T11:51:32.519Z,6.05
2022-08-18T11:54:24.624Z,6.18
2022-08-18T11:56:52.053Z,6.25
2022-08-18T12:02:17.644Z,5.55
2022-08-18T12:04:44.934Z,5.53
2022-08-18T12:07:14.985Z,5.25
2022-08-18T12:10:15.979Z,5.60
2022-08-18T12:13:00.889Z,5.40
2022-08-18T12:18:28.754Z,6.25
2022-08-18T12:21:01.745Z,5.40
2022-08-18T12:23:38.828Z,5.72
2022-08-18T12:26:27.250Z,5.53
2022-08-18T12:29:11.167Z,5.22
2022-08-18T12:34:28.661Z,4.90
2022-08-18T12:36:57.907Z,5.43
2022-08-18T12:39:25.218Z,4.60
2022-08-18T12:41:52.267Z,4.60
2022-08-18T12:44:19.083Z,5.07
2022-08-18T12:46:47.487Z,4.72
2022-08-18T12:49:25.441Z,4.57
2022-08-18T12:51:55.786Z,4.90
2022-08-18T12:54:23.002Z,5.00
2022-08-18T12:56:54.250Z,4.90
2022-08-18T12:59:21.135Z,5.00
2022-08-18T13:01:51.333Z,4.32
2022-08-18T13:04:26.805Z,4.78
2022-08-18T13:07:00.443Z,4.90
2022-08-18T13:09:35.089Z,4.97
2022-08-18T13:12:16.610Z,5.28
2022-08-18T13:14:44.588Z,5.20
2022-08-18T13:17:30.020Z,4.90
2022-08-18T13:20:00.795Z,5.55
2022-08-18T13:22:32.023Z,5.63
2022-08-18T13:25:01.400Z,5.60
2022-08-18T13:27:33.134Z,5.28
2022-08-18T13:30:03.740Z,5.28
2022-08-18T13:32:58.822Z,6.05
2022-08-18T13:35:29.918Z,5.15
2022-08-18T13:38:14.595Z,5.30
2022-08-18T13:40:48.613Z,5.75
2022-08-18T13:43:17.734Z,5.90
2022-08-18T13:45:52.949Z,5.60
2022-08-18T13:48:20.008Z,6.20
2022-08-18T13:50:47.177Z,5.50
2022-08-18T13:53:19.929Z,5.95
2022-08-18T13:55:47.767Z,6.28
2022-08-18T13:58:17.578Z,6.28
2022-08-18T14:00:54.412Z,6.05
2022-08-18T14:03:42.359Z,5.72
2022-08-18T14:06:13.121Z,5.82
2022-08-18T14:08:40.885Z,5.78
2022-08-18T14:11:08.571Z,5.70
2022-08-18T14:13:38.082Z,5.25
2022-08-18T14:16:10.599Z,5.93
2022-08-18T14:18:37.386Z,5.72
2022-08-18T14:21:24.527Z,6.10
2022-08-18T14:24:14.207Z,6.07
2022-08-18T14:26:51.238Z,5.95
2022-08-18T14:29:45.634Z,6.15
2022-08-18T14:32:07.296Z,6.00
2022-08-18T14:34:34.749Z,5.90
2022-08-18T14:37:03.648Z,5.47
2022-08-18T14:39:30.506Z,5.90
2022-08-18T14:41:58.680Z,5.53
2022-08-18T14:44:31.822Z,4.93
2022-08-18T14:46:59.740Z,5.07
2022-08-18T14:49:29.410Z,5.20
2022-08-18T14:52:00.651Z,4.88
2022-08-18T14:54:28.697Z,4.38
2022-08-18T14:56:58.315Z,4.70
2022-08-18T14:59:25.627Z,4.72
2022-08-18T15:01:53.390Z,4.85
2022-08-18T15:04:21.186Z,4.90
2022-08-18T15:06:55.634Z,4.45
2022-08-18T15:09:23.422Z,4.68
2022-08-18T15:11:51.242Z,5.22
2022-08-18T15:14:21.487Z,5.20
2022-08-18T15:17:13.270Z,5.20
2022-08-18T15:19:59.689Z,5.70
2022-08-18T15:22:46.439Z,5.57
2022-08-18T15:25:47.204Z,4.93
2022-08-18T15:28:23.717Z,5.35
2022-08-18T15:31:16.609Z,5.13
2022-08-18T15:33:39.310Z,5.05
2022-08-18T15:36:09.967Z,6.00
2022-08-18T15:38:37.147Z,5.82
2022-08-18T15:41:06.299Z,6.30
2022-08-18T15:43:45.796Z,5.68
2022-08-18T15:46:16.746Z,6.13
2022-08-18T15:48:46.408Z,5.43
2022-08-18T15:51:13.322Z,5.07
2022-08-18T15:53:44.812Z,5.35
2022-08-18T15:56:25.830Z,5.00
2022-08-18T15:58:52.869Z,5.55
2022-08-18T16:01:32.275Z,5.95
2022-08-18T16:04:01.432Z,5.50
2022-08-18T16:06:32.199Z,5.68
2022-08-18T16:08:59.622Z,5.18
2022-08-18T16:11:29.457Z,5.22
2022-08-18T16:13:59.113Z,5.57
2022-08-18T16:16:29.253Z,5.80
2022-08-18T16:19:05.220Z,5.60
2022-08-18T16:21:32.037Z,5.88
2022-08-18T16:23:59.019Z,6.25
2022-08-18T16:26:25.849Z,5.10
2022-08-18T16:28:53.070Z,5.47
2022-08-18T16:31:25.146Z,6.15
2022-08-18T16:33:56.349Z,5.90
2022-08-18T16:36:25.850Z,6.00
2022-08-18T16:38:58.034Z,5.93
2022-08-18T16:41:26.683Z,5.55
2022-08-18T16:43:53.570Z,6.53
2022-08-18T16:46:26.343Z,5.53
2022-08-18T16:48:58.007Z,5.65
2022-08-18T16:51:27.109Z,5.68
2022-08-18T16:53:54.633Z,5.75
2022-08-18T16:56:26.688Z,5.20
2022-08-18T16:59:13.196Z,5.47
2022-08-18T17:01:59.161Z,5.20
2022-08-18T17:04:29.050Z,5.32
2022-08-18T17:06:56.961Z,5.65
2022-08-18T17:09:23.984Z,5.63
2022-08-18T17:11:52.466Z,5.70
2022-08-18T17:14:24.800Z,5.20
2022-08-18T17:16:55.212Z,5.70
2022-08-18T17:19:28.124Z,6.18
2022-08-18T17:21:54.857Z,5.93
2022-08-18T17:24:32.267Z,8.25
2022-08-18T17:27:27.250Z,5.53
2022-08-18T17:29:54.436Z,5.95
2022-08-18T17:32:26.058Z,6.05
2022-08-18T17:35:00.976Z,6.22
2022-08-18T17:37:31.190Z,5.70
2022-08-18T17:40:04.211Z,6.05
2022-08-18T17:42:32.120Z,6.85
2022-08-18T17:45:08.210Z,7.03
2022-08-18T17:47:59.862Z,6.90
2022-08-18T17:50:55.296Z,5.95
2022-08-18T17:53:22.635Z,6.85
2022-08-18T17:56:00.083Z,6.45
2022-08-18T17:58:38.158Z,6.60
2022-08-18T18:01:05.525Z,6.53
2022-08-18T18:03:34.173Z,6.43
2022-08-18T18:06:32.260Z,6.70
2022-08-18T18:09:02.247Z,5.90
2022-08-18T18:11:35.177Z,6.18
2022-08-18T18:14:34.100Z,5.78
2022-08-18T18:17:14.591Z,6.50
2022-08-18T18:19:48.094Z,6.43
2022-08-18T18:22:27.385Z,6.10
2022-08-18T18:24:56.295Z,7.30
2022-08-18T18:27:27.049Z,6.22
2022-08-18T18:30:07.340Z,6.38
2022-08-18T18:32:38.633Z,5.93
2022-08-18T18:35:34.138Z,6.32
2022-08-18T18:38:04.356Z,6.30
2022-08-18T18:40:57.526Z,6.53
2022-08-18T18:43:27.262Z,6.43
2022-08-18T18:46:08.012Z,6.20
2022-08-18T18:49:01.680Z,6.30
2022-08-18T18:51:53.009Z,6.95
2022-08-18T18:54:44.202Z,5.97
2022-08-18T18:57:30.279Z,6.18
2022-08-18T19:00:16.830Z,6.68
2022-08-18T19:02:53.696Z,6.47
2022-08-18T19:05:38.837Z,6.25
2022-08-18T19:08:28.470Z,6.75
2022-08-18T19:11:05.486Z,6.47
2022-08-18T19:13:37.293Z,6.70
2022-08-18T19:16:29.059Z,6.90
2022-08-18T19:19:38.335Z,6.60
2022-08-18T19:22:05.563Z,6.65
2022-08-18T19:24:38.919Z,6.50
2022-08-18T19:27:07.751Z,6.18
2022-08-18T19:29:42.793Z,6.35
2022-08-18T19:32:17.146Z,6.05
2022-08-18T19:34:51.340Z,6.32
2022-08-18T19:37:30.961Z,6.63
2022-08-18T19:40:37.254Z,6.38
2022-08-18T19:43:13.216Z,6.47
2022-08-18T19:45:46.896Z,6.60
2022-08-18T19:48:35.010Z,6.05
2022-08-18T19:51:08.493Z,6.28
2022-08-18T19:53:59.074Z,6.70
2022-08-18T19:56:25.753Z,6.38
2022-08-18T19:59:34.984Z,6.60
2022-08-18T20:02:40.263Z,5.93
2022-08-18T20:05:39.075Z,6.63
2022-08-18T20:08:27.393Z,5.50
2022-08-18T20:10:54.194Z,5.78
2022-08-18T20:13:33.086Z,6.30
2022-08-18T20:16:02.961Z,5.90
2022-08-18T20:18:34.620Z,5.88
2022-08-18T20:21:16.847Z,5.75
2022-08-18T20:23:56.311Z,6.20
2022-08-18T20:26:35.302Z,6.38
2022-08-18T20:29:02.453Z,6.85
2022-08-18T20:31:53.605Z,7.85
2022-08-18T20:34:23.785Z,8.80
2022-08-18T20:36:52.074Z,8.02
2022-08-18T20:39:42.156Z,8.43
2022-08-18T20:42:37.555Z,8.13
2022-08-18T20:45:12.594Z,8.60
2022-08-18T20:48:03.679Z,7.65
2022-08-18T20:50:54.386Z,7.80
2022-08-18T20:53:24.095Z,9.00
2022-08-18T20:56:32.517Z,8.60
2022-08-18T20:59:30.603Z,8.25
2022-08-18T21:02:06.211Z,8.55
2022-08-18T21:04:50.534Z,8.88
2022-08-18T21:07:36.178Z,8.82
2022-08-18T21:10:24.592Z,8.70
2022-08-18T21:12:54.306Z,8.45
2022-08-18T21:15:31.188Z,8.45
2022-08-18T21:17:59.709Z,10.35
2022-08-18T21:20:27.390Z,8.80
2022-08-18T21:23:12.302Z,9.68
2022-08-18T21:25:56.749Z,9.23
2022-08-18T21:28:26.664Z,9.45
2022-08-18T21:31:42.510Z,9.07
2022-08-18T21:33:56.066Z,10.63
2022-08-18T21:36:25.666Z,11.85
2022-08-18T21:39:05.224Z,10.70
2022-08-18T21:41:34.491Z,11.93
2022-08-18T21:44:07.571Z,11.77
2022-08-18T21:46:34.662Z,12.45
2022-08-18T21:49:02.796Z,13.10
2022-08-18T21:51:38.491Z,13.80
2022-08-18T21:54:05.678Z,12.52
2022-08-18T21:56:34.630Z,12.55
2022-08-18T21:59:14.007Z,12.98
2022-08-18T22:01:58.028Z,13.57
2022-08-18T22:04:35.968Z,12.70
2022-08-18T22:07:06.243Z,12.88
2022-08-18T22:10:20.790Z,12.00
2022-08-18T22:13:14.392Z,12.05
2022-08-18T22:15:42.684Z,11.75
2022-08-18T22:18:18.513Z,12.88
2022-08-18T22:20:51.190Z,14.23
2022-08-18T22:23:43.507Z,13.73
2022-08-18T22:26:16.363Z,13.60
2022-08-18T22:29:13.400Z,13.68
2022-08-18T22:31:48.885Z,12.80
2022-08-18T22:34:26.991Z,13.38
2022-08-18T22:37:00.982Z,13.27
2022-08-18T22:39:35.532Z,12.55
2022-08-18T22:42:03.821Z,12.40
2022-08-18T22:44:30.577Z,13.20
2022-08-18T22:46:57.271Z,12.93
2022-08-18T22:49:24.404Z,13.15
2022-08-18T22:51:53.389Z,12.70
2022-08-18T22:54:20.645Z,13.07
2022-08-18T22:56:53.840Z,12.63
2022-08-18T22:59:23.685Z,12.60
2022-08-18T23:01:51.316Z,12.38
2022-08-18T23:04:20.864Z,12.48
2022-08-18T23:06:54.117Z,12.32
2022-08-18T23:09:29.720Z,12.52
2022-08-18T23:11:59.386Z,11.50
2022-08-18T23:14:26.131Z,11.63
2022-08-18T23:16:52.866Z,11.23
2022-08-18T23:19:20.838Z,11.55
2022-08-18T23:21:48.740Z,11.27
2022-08-18T23:24:17.566Z,10.13
2022-08-18T23:26:44.800Z,10.23
2022-08-18T23:29:12.761Z,11.38
2022-08-18T23:31:40.946Z,11.45
2022-08-18T23:34:08.366Z,11.82
2022-08-18T23:36:41.273Z,11.50
2022-08-18T23:39:10.726Z,11.10
2022-08-18T23:41:38.425Z,11.73
2022-08-18T23:44:06.696Z,11.93
2022-08-18T23:46:33.919Z,12.10
2022-08-18T23:49:02.681Z,12.10
2022-08-18T23:51:35.161Z,11.70
2022-08-18T23:54:05.259Z,12.82
2022-08-18T23:56:32.734Z,12.50
2022-08-18T23:59:00.085Z,12.20
